Time;durP1;ratioP1;P1;durP2;ratioP2;P2;SDS_P1;SDS_P2;PMS_P1;PMS_P2;Temp;Humidity;BMP_temperature;BMP_pressure;BME280_temperature;BME280_humidity;BME280_pressure;Samples;Min_cycle;Max_cycle;Signal;HPM_P1;HPM_P2
2022/10/11 00:01:34;;;;;;;16.20;3.13;;;8.30;99.90;;;;;;5074638;28;20213;-58
2022/10/11 00:04:00;;;;;;;21.00;2.50;;;8.30;99.90;;;;;;5074518;28;20238;-58
2022/10/11 00:06:27;;;;;;;14.57;2.67;;;8.20;99.90;;;;;;5074675;28;20271;-58
2022/10/11 00:08:54;;;;;;;19.47;3.03;;;8.20;99.90;;;;;;5074452;28;20283;-58
2022/10/11 00:11:22;;;;;;;14.37;3.17;;;8.30;99.90;;;;;;5074798;28;20237;-58
2022/10/11 00:13:48;;;;;;;17.87;3.47;;;8.20;99.90;;;;;;5074282;28;20233;-58
2022/10/11 00:16:15;;;;;;;9.67;3.37;;;8.20;99.90;;;;;;5074168;28;20211;-58
2022/10/11 00:18:42;;;;;;;9.83;3.03;;;8.20;99.90;;;;;;5074203;28;20278;-57
2022/10/11 00:21:10;;;;;;;8.37;3.30;;;8.20;99.90;;;;;;5074315;28;20262;-58
2022/10/11 00:23:38;;;;;;;11.33;3.57;;;8.20;99.90;;;;;;5074319;28;20292;-57
2022/10/11 00:26:06;;;;;;;18.40;3.77;;;8.20;99.90;;;;;;5073870;28;20214;-58
2022/10/11 00:28:35;;;;;;;14.63;3.90;;;8.20;99.90;;;;;;5073982;28;20228;-58
2022/10/11 00:31:03;;;;;;;14.13;3.43;;;8.10;99.90;;;;;;5073325;28;20209;-58
2022/10/11 00:33:30;;;;;;;11.97;3.53;;;8.10;99.90;;;;;;5073668;28;20272;-58
2022/10/11 00:35:59;;;;;;;14.77;4.10;;;8.10;99.90;;;;;;5073912;28;20210;-58
2022/10/11 00:38:26;;;;;;;20.50;5.43;;;8.10;99.90;;;;;;5073587;28;20318;-58
2022/10/11 00:40:53;;;;;;;10.37;4.07;;;8.10;99.90;;;;;;5074049;28;20205;-56
2022/10/11 00:43:22;;;;;;;16.60;4.87;;;8.10;99.90;;;;;;5073575;28;20731;-56
2022/10/11 00:46:27;;;;;;;15.20;4.10;;;8.10;99.90;;;;;;5073646;28;20263;-57
2022/10/11 00:48:57;;;;;;;14.20;3.97;;;8.10;99.90;;;;;;5073722;28;20225;-53
2022/10/11 00:51:35;;;;;;;17.07;5.13;;;8.10;99.90;;;;;;5074204;28;20283;-58
2022/10/11 00:54:03;;;;;;;15.90;5.37;;;8.10;99.90;;;;;;5073732;28;20229;-58
2022/10/11 00:56:34;;;;;;;14.20;4.37;;;8.00;99.90;;;;;;5073952;28;20210;-57
2022/10/11 00:59:04;;;;;;;21.33;5.20;;;8.00;99.90;;;;;;5073428;28;20290;-58
2022/10/11 01:01:32;;;;;;;14.20;4.83;;;8.00;99.90;;;;;;5073593;28;20722;-58
2022/10/11 01:04:00;;;;;;;16.37;5.40;;;8.00;99.90;;;;;;5073167;28;20206;-58
2022/10/11 01:06:27;;;;;;;20.03;5.27;;;8.00;99.90;;;;;;5073192;28;20203;-58
2022/10/11 01:08:54;;;;;;;19.17;5.17;;;8.00;99.90;;;;;;5073145;28;20225;-58
2022/10/11 01:11:25;;;;;;;17.00;5.37;;;7.90;99.90;;;;;;5073391;28;20586;-58
2022/10/11 01:14:06;;;;;;;17.53;6.00;;;7.90;99.90;;;;;;5073407;28;20213;-56
2022/10/11 01:16:42;;;;;;;11.63;5.27;;;7.90;99.90;;;;;;5072703;28;20209;-58
2022/10/11 01:19:22;;;;;;;16.47;5.33;;;7.90;99.90;;;;;;5073084;28;20276;-58
2022/10/11 01:21:57;;;;;;;17.93;5.83;;;7.90;99.90;;;;;;5073225;28;20254;-58
2022/10/11 01:24:49;;;;;;;21.57;6.23;;;7.90;99.90;;;;;;5072970;28;20259;-58
2022/10/11 01:27:34;;;;;;;21.83;5.60;;;7.90;99.90;;;;;;5072852;28;20247;-58
2022/10/11 01:30:19;;;;;;;17.80;5.73;;;7.80;99.90;;;;;;5072742;28;20746;-56
2022/10/11 01:32:52;;;;;;;21.67;6.50;;;7.80;99.90;;;;;;5072821;28;20804;-58
2022/10/11 01:35:25;;;;;;;19.03;6.77;;;7.80;99.90;;;;;;5072828;28;20229;-58
2022/10/11 01:37:58;;;;;;;24.00;6.80;;;7.80;99.90;;;;;;5072618;28;20187;-57
2022/10/11 01:40:33;;;;;;;23.20;7.47;;;7.70;99.90;;;;;;5072564;28;20205;-58
2022/10/11 01:43:01;;;;;;;20.40;7.37;;;7.80;99.90;;;;;;5071857;28;20250;-55
2022/10/11 01:45:30;;;;;;;24.53;7.33;;;7.80;99.90;;;;;;5072759;28;20668;-56
2022/10/11 01:48:09;;;;;;;17.90;6.53;;;7.80;99.90;;;;;;5072291;28;20209;-58
2022/10/11 01:50:41;;;;;;;16.30;6.30;;;7.80;99.90;;;;;;5072516;28;20621;-57
2022/10/11 01:53:37;;;;;;;21.07;7.13;;;7.80;99.90;;;;;;5072289;28;20209;-55
2022/10/11 01:56:13;;;;;;;18.40;6.47;;;7.70;99.90;;;;;;5072320;28;20236;-58
2022/10/11 01:58:53;;;;;;;25.00;6.43;;;7.70;99.90;;;;;;5072035;28;20236;-58
2022/10/11 02:01:32;;;;;;;15.77;6.83;;;7.70;99.90;;;;;;5072432;28;20705;-58
2022/10/11 02:04:05;;;;;;;17.33;6.50;;;7.60;99.90;;;;;;5072498;28;20254;-61
2022/10/11 02:06:38;;;;;;;27.13;6.90;;;7.60;99.90;;;;;;5072069;28;20209;-56
2022/10/11 02:09:12;;;;;;;17.80;7.13;;;7.60;99.90;;;;;;5071938;28;20275;-58
2022/10/11 02:11:39;;;;;;;18.80;7.70;;;7.60;99.90;;;;;;5072500;28;20196;-58
2022/10/11 02:14:10;;;;;;;23.57;8.67;;;7.50;99.90;;;;;;5072269;28;20215;-57
2022/10/11 02:16:43;;;;;;;20.40;7.40;;;7.50;99.90;;;;;;5072168;28;20189;-58
2022/10/11 02:19:11;;;;;;;21.37;7.67;;;7.50;99.90;;;;;;5072123;28;20225;-58
2022/10/11 02:21:42;;;;;;;20.60;7.50;;;7.50;99.90;;;;;;5072019;28;20264;-58
2022/10/11 02:24:14;;;;;;;29.80;7.80;;;7.50;99.90;;;;;;5072403;28;20209;-56
2022/10/11 02:26:43;;;;;;;27.77;8.40;;;7.50;99.90;;;;;;5071944;28;20217;-57
2022/10/11 02:29:12;;;;;;;28.07;8.17;;;7.50;99.90;;;;;;5071714;28;20276;-57
2022/10/11 02:31:41;;;;;;;26.47;8.47;;;7.50;99.90;;;;;;5071984;28;20216;-57
2022/10/11 02:34:13;;;;;;;24.57;8.43;;;7.50;99.90;;;;;;5071598;28;20205;-58
2022/10/11 02:36:47;;;;;;;24.27;9.63;;;7.50;99.90;;;;;;5071972;28;20206;-58
2022/10/11 02:39:17;;;;;;;27.30;9.37;;;7.50;99.90;;;;;;5071626;28;20258;-56
2022/10/11 02:41:46;;;;;;;27.67;9.60;;;7.50;99.90;;;;;;5072237;28;20193;-58
2022/10/11 02:44:16;;;;;;;22.80;8.53;;;7.50;99.90;;;;;;5071538;28;20212;-58
2022/10/11 02:46:46;;;;;;;29.27;9.50;;;7.50;99.90;;;;;;5071710;28;20250;-57
2022/10/11 02:49:14;;;;;;;20.83;8.77;;;7.50;99.90;;;;;;5071622;28;20671;-55
2022/10/11 02:51:41;;;;;;;28.50;9.60;;;7.50;99.90;;;;;;5071999;28;20206;-57
2022/10/11 02:54:08;;;;;;;25.23;9.53;;;7.50;99.90;;;;;;5072148;28;20656;-57
2022/10/11 02:56:34;;;;;;;26.70;9.53;;;7.50;99.90;;;;;;5075829;28;20238;-57
2022/10/11 02:59:01;;;;;;;27.97;10.67;;;7.50;99.90;;;;;;5075911;28;20486;-57
2022/10/11 03:01:28;;;;;;;23.30;8.83;;;7.50;99.90;;;;;;5076049;28;20262;-58
2022/10/11 03:03:56;;;;;;;30.00;9.97;;;7.50;99.90;;;;;;5075673;28;20243;-58
2022/10/11 03:06:22;;;;;;;36.07;11.33;;;7.50;99.90;;;;;;5075565;28;20201;-56
2022/10/11 03:08:49;;;;;;;25.97;10.30;;;7.50;99.90;;;;;;5075255;28;20228;-57
2022/10/11 03:11:16;;;;;;;21.03;9.70;;;7.50;99.90;;;;;;5075353;28;20216;-58
2022/10/11 03:13:42;;;;;;;29.07;10.47;;;7.40;99.90;;;;;;5075465;28;20209;-55
2022/10/11 03:16:09;;;;;;;27.57;10.27;;;7.40;99.90;;;;;;5075305;28;20297;-57
2022/10/11 03:18:35;;;;;;;26.93;10.77;;;7.40;99.90;;;;;;5075402;28;20281;-58
2022/10/11 03:21:04;;;;;;;35.23;10.87;;;7.40;99.90;;;;;;5075383;28;20204;-58
2022/10/11 03:23:30;;;;;;;29.30;10.37;;;7.40;99.90;;;;;;5075291;28;20664;-56
2022/10/11 03:25:57;;;;;;;28.57;11.57;;;7.40;99.90;;;;;;5074616;28;20680;-57
2022/10/11 03:28:23;;;;;;;26.63;10.57;;;7.30;99.90;;;;;;5075131;28;20255;-55
2022/10/11 03:30:51;;;;;;;28.63;10.77;;;7.30;99.90;;;;;;5075010;28;20759;-57
2022/10/11 03:33:18;;;;;;;30.20;11.37;;;7.30;99.90;;;;;;5075278;28;20258;-56
2022/10/11 03:35:45;;;;;;;26.80;10.97;;;7.30;99.90;;;;;;5074727;28;20636;-57
2022/10/11 03:38:16;;;;;;;40.33;12.10;;;7.30;99.90;;;;;;5075275;28;20283;-55
2022/10/11 03:40:44;;;;;;;30.87;12.50;;;7.20;99.90;;;;;;5074927;28;20205;-55
2022/10/11 03:43:11;;;;;;;27.23;12.27;;;7.20;99.90;;;;;;5075051;28;20201;-56
2022/10/11 03:45:38;;;;;;;36.07;11.93;;;7.20;99.90;;;;;;5075006;28;20264;-55
2022/10/11 03:48:05;;;;;;;34.37;12.63;;;7.20;99.90;;;;;;5074648;28;20212;-55
2022/10/11 03:50:32;;;;;;;32.00;12.67;;;7.20;99.90;;;;;;5074734;28;20213;-53
2022/10/11 03:52:59;;;;;;;30.17;12.67;;;7.20;99.90;;;;;;5074734;28;20209;-54
2022/10/11 03:55:27;;;;;;;34.33;14.53;;;7.20;99.90;;;;;;5074424;28;20326;-55
2022/10/11 03:57:53;;;;;;;43.93;19.83;;;7.20;99.90;;;;;;5074631;28;20239;-56
2022/10/11 04:00:20;;;;;;;41.27;14.70;;;7.20;99.90;;;;;;5074608;28;20205;-57
2022/10/11 04:02:47;;;;;;;33.53;14.10;;;7.20;99.90;;;;;;5074652;28;20664;-57
2022/10/11 04:05:14;;;;;;;33.33;13.40;;;7.20;99.90;;;;;;5074262;28;20255;-55
2022/10/11 04:07:41;;;;;;;27.43;11.77;;;7.20;99.90;;;;;;5073724;28;20205;-55
2022/10/11 04:10:08;;;;;;;30.03;12.97;;;7.20;99.90;;;;;;5074334;28;20751;-56
2022/10/11 04:12:37;;;;;;;35.27;13.30;;;7.20;99.90;;;;;;5074880;28;20205;-57
2022/10/11 04:15:05;;;;;;;31.27;13.47;;;7.20;99.90;;;;;;5074517;28;20225;-57
2022/10/11 04:17:31;;;;;;;32.07;13.23;;;7.20;99.90;;;;;;5074085;28;20205;-57
2022/10/11 04:19:58;;;;;;;29.00;13.57;;;7.20;99.90;;;;;;5073993;28;20229;-57
2022/10/11 04:22:25;;;;;;;40.33;13.63;;;7.20;99.90;;;;;;5074094;28;20227;-56
2022/10/11 04:24:51;;;;;;;31.40;13.83;;;7.20;99.90;;;;;;5074223;28;20628;-57
2022/10/11 04:27:18;;;;;;;33.93;12.73;;;7.10;99.90;;;;;;5074114;28;20209;-57
2022/10/11 04:29:46;;;;;;;39.30;13.07;;;7.20;99.90;;;;;;5074032;28;20229;-57
2022/10/11 04:32:13;;;;;;;31.17;12.57;;;7.20;99.90;;;;;;5074103;28;20213;-58
2022/10/11 04:34:39;;;;;;;28.07;12.47;;;7.20;99.90;;;;;;5074148;28;20251;-55
2022/10/11 04:37:06;;;;;;;26.20;11.63;;;7.10;99.90;;;;;;5073528;28;20205;-57
2022/10/11 04:39:33;;;;;;;30.43;12.17;;;7.10;99.90;;;;;;5073965;28;20225;-57
2022/10/11 04:41:59;;;;;;;24.47;12.87;;;7.10;99.90;;;;;;5073891;28;20205;-61
2022/10/11 04:44:26;;;;;;;27.17;12.33;;;7.10;99.90;;;;;;5073641;28;20749;-58
2022/10/11 04:46:54;;;;;;;24.50;11.27;;;7.00;99.90;;;;;;5073444;28;20205;-57
2022/10/11 04:49:21;;;;;;;32.50;11.40;;;7.00;99.90;;;;;;5073695;28;20232;-58
2022/10/11 04:51:47;;;;;;;20.87;11.27;;;7.00;99.90;;;;;;5073466;28;20675;-58
2022/10/11 04:54:15;;;;;;;24.97;11.43;;;7.00;99.90;;;;;;5073522;28;20205;-58
2022/10/11 04:56:43;;;;;;;27.30;12.73;;;6.90;99.90;;;;;;5073160;28;20221;-57
2022/10/11 04:59:09;;;;;;;30.57;12.50;;;6.90;99.90;;;;;;5073428;28;20874;-57
2022/10/11 05:01:36;;;;;;;27.73;12.10;;;6.90;99.90;;;;;;5073250;28;20752;-58
2022/10/11 05:04:04;;;;;;;25.17;11.23;;;6.90;99.90;;;;;;5073146;28;20208;-58
2022/10/11 05:06:31;;;;;;;26.90;12.13;;;6.80;99.90;;;;;;5073082;28;20274;-57
2022/10/11 05:08:59;;;;;;;24.83;11.60;;;6.80;99.90;;;;;;5073185;28;20229;-57
2022/10/11 05:11:26;;;;;;;28.30;11.23;;;6.80;99.90;;;;;;5073053;28;20277;-58
2022/10/11 05:13:52;;;;;;;29.37;12.53;;;6.80;99.90;;;;;;5073069;28;20223;-58
2022/10/11 05:16:19;;;;;;;28.60;12.00;;;6.70;99.90;;;;;;5072748;28;20224;-58
2022/10/11 05:18:46;;;;;;;24.00;12.83;;;6.70;99.90;;;;;;5071917;28;20652;-58
2022/10/11 05:21:17;;;;;;;24.90;12.67;;;6.70;99.90;;;;;;5072599;28;20209;-58
2022/10/11 05:23:45;;;;;;;29.20;12.73;;;6.70;99.90;;;;;;5072940;28;20192;-58
2022/10/11 05:26:11;;;;;;;26.43;12.60;;;6.70;99.90;;;;;;5072505;28;20679;-57
2022/10/11 05:28:38;;;;;;;28.40;12.80;;;6.70;99.90;;;;;;5073031;28;20601;-58
2022/10/11 05:31:05;;;;;;;24.80;12.07;;;6.70;99.90;;;;;;5073510;28;20216;-57
2022/10/11 05:33:32;;;;;;;23.90;11.60;;;6.70;99.90;;;;;;5073434;28;20259;-58
2022/10/11 05:35:59;;;;;;;26.00;12.63;;;6.60;99.90;;;;;;5072364;28;20236;-58
2022/10/11 05:38:27;;;;;;;29.00;13.27;;;6.60;99.90;;;;;;5072586;28;20229;-55
2022/10/11 05:40:54;;;;;;;35.30;13.13;;;6.60;99.90;;;;;;5072461;28;20622;-58
2022/10/11 05:43:20;;;;;;;26.23;12.87;;;6.60;99.90;;;;;;5072596;28;20304;-57
2022/10/11 05:45:47;;;;;;;24.90;11.90;;;6.60;99.90;;;;;;5072639;28;20254;-55
2022/10/11 05:48:14;;;;;;;28.27;13.13;;;6.50;99.90;;;;;;5072473;28;20225;-59
2022/10/11 05:50:40;;;;;;;25.50;12.60;;;6.50;99.90;;;;;;5072466;28;20270;-57
2022/10/11 05:53:07;;;;;;;24.67;12.97;;;6.50;99.90;;;;;;5072417;28;20634;-56
2022/10/11 05:55:37;;;;;;;32.93;13.27;;;6.50;99.90;;;;;;5072152;28;20220;-58
2022/10/11 05:58:05;;;;;;;33.07;13.13;;;6.50;99.90;;;;;;5071798;28;20282;-58
2022/10/11 06:00:31;;;;;;;25.90;13.03;;;6.50;99.90;;;;;;5072186;28;20235;-58
2022/10/11 06:02:58;;;;;;;31.53;13.50;;;6.50;99.90;;;;;;5072211;28;20622;-58
2022/10/11 06:05:25;;;;;;;23.27;13.33;;;6.50;99.90;;;;;;5072106;28;20205;-58
2022/10/11 06:07:51;;;;;;;27.33;13.13;;;6.50;99.90;;;;;;5071887;28;20597;-58
2022/10/11 06:10:18;;;;;;;30.50;13.40;;;6.50;99.90;;;;;;5072083;28;20209;-58
2022/10/11 06:12:46;;;;;;;32.10;12.33;;;6.50;99.90;;;;;;5071828;28;20205;-56
2022/10/11 06:15:13;;;;;;;25.10;12.77;;;6.50;99.90;;;;;;5071883;28;20266;-58
2022/10/11 06:17:40;;;;;;;30.63;12.67;;;6.50;99.90;;;;;;5071843;28;20579;-58
2022/10/11 06:20:07;;;;;;;27.60;12.70;;;6.50;99.90;;;;;;5071847;28;20768;-56
2022/10/11 06:22:34;;;;;;;28.37;12.90;;;6.50;99.90;;;;;;5072269;28;20613;-56
2022/10/11 06:25:01;;;;;;;29.97;13.33;;;6.50;99.90;;;;;;5071686;28;20216;-57
2022/10/11 06:27:28;;;;;;;30.07;13.60;;;6.50;99.90;;;;;;5071642;28;20208;-58
2022/10/11 06:29:56;;;;;;;30.70;13.73;;;6.60;99.90;;;;;;5071662;28;20229;-57
2022/10/11 06:32:22;;;;;;;27.67;14.20;;;6.60;99.90;;;;;;5071856;28;20213;-57
2022/10/11 06:34:49;;;;;;;26.50;14.23;;;6.70;99.90;;;;;;5071865;28;20235;-56
2022/10/11 06:37:16;;;;;;;31.73;15.40;;;6.70;99.90;;;;;;5071726;28;20220;-58
2022/10/11 06:39:43;;;;;;;26.17;13.23;;;6.70;99.90;;;;;;5071515;28;20228;-59
2022/10/11 06:42:10;;;;;;;33.67;14.47;;;6.80;99.90;;;;;;5071584;28;20213;-57
2022/10/11 06:44:37;;;;;;;29.70;13.37;;;6.80;99.90;;;;;;5071656;28;20701;-58
2022/10/11 06:47:05;;;;;;;31.80;14.67;;;6.90;99.90;;;;;;5071579;28;20219;-58
2022/10/11 06:49:32;;;;;;;24.83;13.73;;;7.00;99.90;;;;;;5071594;28;20640;-60
2022/10/11 06:51:58;;;;;;;31.23;14.90;;;7.00;99.90;;;;;;5071753;28;20235;-58
2022/10/11 06:54:25;;;;;;;33.30;15.20;;;7.10;99.90;;;;;;5071732;28;20209;-56
2022/10/11 06:56:52;;;;;;;35.87;15.43;;;7.20;99.90;;;;;;5071496;28;20286;-58
2022/10/11 06:59:18;;;;;;;30.37;16.40;;;7.30;99.90;;;;;;5071865;28;20290;-58
2022/10/11 07:01:45;;;;;;;34.60;16.17;;;7.40;99.90;;;;;;5071604;28;20205;-58
2022/10/11 07:04:13;;;;;;;32.57;15.93;;;7.50;99.90;;;;;;5071770;28;20258;-58
2022/10/11 07:06:41;;;;;;;37.60;15.23;;;7.50;99.90;;;;;;5071163;28;20205;-58
2022/10/11 07:09:08;;;;;;;37.87;16.30;;;7.60;99.90;;;;;;5071217;28;20229;-58
2022/10/11 07:11:35;;;;;;;31.60;15.27;;;7.70;99.90;;;;;;5071658;28;20260;-59
2022/10/11 07:14:06;;;;;;;37.63;16.73;;;7.70;99.90;;;;;;5071475;28;20727;-59
2022/10/11 07:16:33;;;;;;;34.27;14.20;;;7.80;99.90;;;;;;5071544;28;20267;-58
2022/10/11 07:19:01;;;;;;;35.73;15.77;;;7.90;99.90;;;;;;5071386;28;20274;-57
2022/10/11 07:21:31;;;;;;;31.60;15.50;;;8.00;99.90;;;;;;5071360;28;20205;-53
2022/10/11 07:23:57;;;;;;;34.33;15.73;;;8.10;99.90;;;;;;5071559;28;20209;-57
2022/10/11 07:26:24;;;;;;;34.53;16.20;;;8.10;99.90;;;;;;5072287;28;20210;-59
2022/10/11 07:28:51;;;;;;;40.63;18.80;;;8.30;99.90;;;;;;5072100;28;20833;-58
2022/10/11 07:31:21;;;;;;;40.23;17.20;;;8.40;99.90;;;;;;5071895;28;20262;-58
2022/10/11 07:33:47;;;;;;;30.67;15.63;;;8.50;99.90;;;;;;5071094;28;20279;-58
2022/10/11 07:36:16;;;;;;;35.27;16.20;;;8.50;99.90;;;;;;5070897;28;20229;-58
2022/10/11 07:38:46;;;;;;;41.07;16.50;;;8.60;99.90;;;;;;5071045;28;20227;-58
2022/10/11 07:41:13;;;;;;;35.77;16.47;;;8.70;99.90;;;;;;5071823;28;20693;-58
2022/10/11 07:43:42;;;;;;;34.33;16.70;;;8.80;99.90;;;;;;5074454;28;20207;-58
2022/10/11 07:46:09;;;;;;;43.37;16.97;;;8.80;99.90;;;;;;5074592;28;20203;-59
2022/10/11 07:48:36;;;;;;;36.10;16.47;;;8.90;99.90;;;;;;5074423;28;20596;-59
2022/10/11 07:51:05;;;;;;;36.10;16.40;;;9.00;99.90;;;;;;5074861;28;20756;-59
2022/10/11 07:53:32;;;;;;;43.40;17.33;;;9.10;99.90;;;;;;5074682;28;20205;-59
2022/10/11 07:56:03;;;;;;;32.17;16.67;;;9.20;99.90;;;;;;5074454;28;20617;-58
2022/10/11 07:58:30;;;;;;;45.37;16.50;;;9.20;99.90;;;;;;5074512;28;20228;-59
2022/10/11 08:00:56;;;;;;;42.67;16.20;;;9.20;99.90;;;;;;5074438;28;20628;-59
2022/10/11 08:03:23;;;;;;;41.43;14.70;;;9.20;99.90;;;;;;5074122;28;20630;-59
2022/10/11 08:05:51;;;;;;;42.37;16.07;;;9.30;99.90;;;;;;5074531;28;20241;-59
2022/10/11 08:08:18;;;;;;;39.57;16.07;;;9.30;99.90;;;;;;5074843;28;20230;-59
2022/10/11 08:10:45;;;;;;;43.07;16.17;;;9.30;99.90;;;;;;5074429;28;20621;-58
2022/10/11 08:13:13;;;;;;;45.27;16.83;;;9.30;99.90;;;;;;5074664;28;20208;-58
2022/10/11 08:15:40;;;;;;;41.17;16.10;;;9.40;99.90;;;;;;5074182;28;20741;-58
2022/10/11 08:18:06;;;;;;;40.73;16.00;;;9.40;99.90;;;;;;5074078;28;20232;-58
2022/10/11 08:20:33;;;;;;;38.80;16.37;;;9.50;99.90;;;;;;5074250;28;20220;-58
2022/10/11 08:23:00;;;;;;;45.67;18.67;;;9.60;99.90;;;;;;5074237;28;20591;-58
2022/10/11 08:25:27;;;;;;;47.23;16.70;;;9.60;99.90;;;;;;5074083;28;20213;-57
2022/10/11 08:27:53;;;;;;;38.70;16.53;;;9.70;99.90;;;;;;5073507;28;20257;-56
2022/10/11 08:30:21;;;;;;;46.73;18.80;;;9.80;99.90;;;;;;5074267;28;20201;-56
2022/10/11 08:32:48;;;;;;;47.03;18.47;;;9.90;99.90;;;;;;5073769;28;20213;-59
2022/10/11 08:35:15;;;;;;;44.93;18.13;;;10.00;99.90;;;;;;5074077;28;20209;-58
2022/10/11 08:37:41;;;;;;;45.47;17.63;;;10.10;99.90;;;;;;5073521;28;20294;-59
2022/10/11 08:40:14;;;;;;;39.43;16.03;;;10.20;99.90;;;;;;5073741;28;20232;-59
2022/10/11 08:42:45;;;;;;;38.07;14.70;;;10.40;99.90;;;;;;5073423;28;20209;-57
2022/10/11 08:45:26;;;;;;;29.93;14.67;;;10.50;99.90;;;;;;5073539;28;20201;-56
2022/10/11 08:48:08;;;;;;;25.27;12.30;;;10.70;99.90;;;;;;5073221;28;20741;-57
2022/10/11 08:50:35;;;;;;;26.53;11.03;;;10.80;99.90;;;;;;5073594;28;20208;-59
2022/10/11 08:53:05;;;;;;;21.90;10.53;;;10.90;99.90;;;;;;5073198;28;20216;-58
2022/10/11 08:55:39;;;;;;;25.27;9.27;;;11.10;99.90;;;;;;5073358;28;20209;-58
2022/10/11 08:58:06;;;;;;;24.00;8.77;;;11.10;99.90;;;;;;5073344;28;20266;-58
2022/10/11 09:00:37;;;;;;;20.97;8.30;;;11.10;99.90;;;;;;5073071;28;20204;-59
2022/10/11 09:03:15;;;;;;;24.13;9.00;;;11.30;99.90;;;;;;5073354;28;20297;-58
2022/10/11 09:05:53;;;;;;;22.40;7.50;;;11.40;99.90;;;;;;5073256;28;20209;-59
2022/10/11 09:08:25;;;;;;;19.83;7.90;;;11.50;99.90;;;;;;5073012;28;20227;-58
2022/10/11 09:10:58;;;;;;;16.37;6.53;;;11.40;99.90;;;;;;5073160;28;20204;-55
2022/10/11 09:13:48;;;;;;;19.97;6.50;;;11.40;99.90;;;;;;5073145;28;20208;-58
2022/10/11 09:16:26;;;;;;;20.23;5.93;;;11.60;99.90;;;;;;5072733;28;20236;-58
2022/10/11 09:19:09;;;;;;;19.53;6.97;;;11.80;99.90;;;;;;5072989;28;20229;-59
2022/10/11 09:21:42;;;;;;;16.87;5.83;;;11.90;99.90;;;;;;5073033;28;20238;-59
2022/10/11 09:24:19;;;;;;;13.13;4.60;;;12.00;99.90;;;;;;5072916;28;20210;-59
2022/10/11 09:26:54;;;;;;;16.00;4.23;;;12.10;99.90;;;;;;5072619;28;20269;-58
2022/10/11 09:29:32;;;;;;;23.67;4.03;;;12.30;99.90;;;;;;5072976;28;20228;-59
2022/10/11 09:32:00;;;;;;;10.73;3.60;;;12.40;99.90;;;;;;5072781;28;20208;-59
2022/10/11 09:34:31;;;;;;;17.57;4.20;;;12.60;99.90;;;;;;5072520;28;20612;-59
2022/10/11 09:37:04;;;;;;;12.13;3.80;;;12.60;99.90;;;;;;5072489;28;20209;-58
2022/10/11 09:39:33;;;;;;;16.70;4.20;;;12.60;99.90;;;;;;5072360;28;20224;-60
2022/10/11 09:42:02;;;;;;;17.83;3.40;;;12.50;99.90;;;;;;5072552;28;20213;-58
2022/10/11 09:44:35;;;;;;;11.17;3.00;;;12.50;99.90;;;;;;5072546;28;20827;-58
2022/10/11 09:47:04;;;;;;;10.43;2.67;;;12.50;99.90;;;;;;5072687;28;20204;-59
2022/10/11 09:49:38;;;;;;;8.23;2.63;;;12.50;99.90;;;;;;5072208;28;20227;-59
2022/10/11 09:52:10;;;;;;;8.23;2.60;;;12.50;97.90;;;;;;5072640;28;20212;-59
2022/10/11 09:54:39;;;;;;;12.43;2.63;;;12.50;96.10;;;;;;5072436;28;20273;-59
2022/10/11 09:57:15;;;;;;;7.97;2.13;;;12.50;99.50;;;;;;5072249;28;20277;-59
2022/10/11 09:59:42;;;;;;;7.97;2.37;;;12.50;99.90;;;;;;5071029;28;20246;-57
2022/10/11 10:02:20;;;;;;;13.37;2.47;;;12.70;99.90;;;;;;5072177;28;20205;-59
2022/10/11 10:05:13;;;;;;;12.30;2.47;;;12.80;84.90;;;;;;5071905;28;20264;-59
2022/10/11 10:07:57;;;;;;;8.73;1.83;;;12.90;87.30;;;;;;5072318;28;20232;-58
2022/10/11 10:10:31;;;;;;;11.73;2.17;;;13.00;86.10;;;;;;5072221;28;20288;-59
2022/10/11 10:12:59;;;;;;;10.33;2.10;;;12.90;68.10;;;;;;5072391;28;20205;-56
2022/10/11 10:15:29;;;;;;;12.17;2.20;;;12.70;63.60;;;;;;5072154;28;20208;-59
2022/10/11 10:17:58;;;;;;;9.43;2.30;;;12.70;91.90;;;;;;5072265;28;20232;-58
2022/10/11 10:20:27;;;;;;;12.07;2.47;;;12.80;91.50;;;;;;5072571;28;20208;-59
2022/10/11 10:22:55;;;;;;;8.93;2.13;;;12.90;99.90;;;;;;5072266;28;20205;-59
2022/10/11 10:25:26;;;;;;;13.17;2.00;;;13.10;18.30;;;;;;5072185;28;20216;-59
2022/10/11 10:27:58;;;;;;;5.03;1.80;;;13.30;50.60;;;;;;5071947;28;20287;-59
2022/10/11 10:30:25;;;;;;;4.47;1.40;;;13.50;46.00;;;;;;5071935;28;20240;-59
2022/10/11 10:32:58;;;;;;;12.03;2.03;;;13.80;53.00;;;;;;5072308;28;20277;-59
2022/10/11 10:35:35;;;;;;;5.20;1.30;;;14.00;1.00;;;;;;5071961;28;20640;-59
2022/10/11 10:38:19;;;;;;;7.43;1.77;;;14.20;99.90;;;;;;5071649;28;20225;-58
2022/10/11 10:40:51;;;;;;;9.60;1.63;;;14.20;99.90;;;;;;5072283;28;20205;-59
2022/10/11 10:43:20;;;;;;;7.23;2.00;;;14.20;1.00;;;;;;5073265;28;20280;-59
2022/10/11 10:46:17;;;;;;;5.83;2.03;;;14.20;1.00;;;;;;5072321;28;20694;-59
2022/10/11 10:48:52;;;;;;;7.53;1.80;;;14.20;99.90;;;;;;5071830;28;20225;-59
2022/10/11 10:51:28;;;;;;;8.50;1.90;;;14.20;99.90;;;;;;5071762;28;20201;-59
2022/10/11 10:54:02;;;;;;;10.47;1.67;;;13.70;1.00;;;;;;5071596;28;20258;-59
2022/10/11 10:56:34;;;;;;;9.87;2.00;;;13.90;1.00;;;;;;5071655;28;20213;-59
2022/10/11 10:59:13;;;;;;;8.83;2.00;;;14.20;99.90;;;;;;5071803;28;20232;-59
2022/10/11 11:01:50;;;;;;;8.50;1.80;;;14.30;99.90;;;;;;5071543;28;20205;-59
2022/10/11 11:04:28;;;;;;;8.13;1.80;;;14.30;99.90;;;;;;5071531;28;20280;-59
2022/10/11 11:06:59;;;;;;;7.00;2.03;;;14.20;1.00;;;;;;5071448;28;20189;-58
2022/10/11 11:09:35;;;;;;;9.20;2.07;;;14.40;99.90;;;;;;5071377;28;20580;-58
2022/10/11 11:12:14;;;;;;;7.40;1.70;;;14.50;99.90;;;;;;5071369;28;20209;-59
2022/10/11 11:14:51;;;;;;;10.23;1.80;;;14.50;1.00;;;;;;5071404;28;20209;-59
2022/10/11 11:17:27;;;;;;;5.70;1.60;;;14.70;1.00;;;;;;5073648;28;20228;-61
2022/10/11 11:20:06;;;;;;;6.90;1.80;;;14.90;99.90;;;;;;5092309;28;20220;-61
2022/10/11 11:22:43;;;;;;;7.63;1.83;;;14.90;99.90;;;;;;5095037;28;20253;-61
2022/10/11 11:25:27;;;;;;;9.50;2.33;;;14.20;99.90;;;;;;5094584;28;20231;-66
2022/10/11 11:28:07;;;;;;;7.07;1.70;;;14.20;1.00;;;;;;5094847;28;20285;-58
2022/10/11 11:30:43;;;;;;;6.67;1.83;;;14.10;99.90;;;;;;5094385;28;20713;-63
2022/10/11 11:33:23;;;;;;;7.03;1.60;;;14.20;99.90;;;;;;5095099;28;20204;-63
2022/10/11 11:35:54;;;;;;;9.40;1.57;;;14.60;48.80;;;;;;5093977;28;20204;-60
2022/10/11 11:38:27;;;;;;;10.93;2.00;;;15.00;1.00;;;;;;5095126;28;20361;-61
2022/10/11 11:40:57;;;;;;;8.60;1.70;;;15.20;99.90;;;;;;5094733;28;20208;-56
2022/10/11 11:43:31;;;;;;;7.63;2.10;;;15.40;99.90;;;;;;5094581;28;20208;-58
2022/10/11 11:46:03;;;;;;;7.03;1.73;;;15.40;96.60;;;;;;5094668;28;20740;-59
2022/10/11 11:48:30;;;;;;;7.63;2.27;;;15.30;1.00;;;;;;5094577;28;20220;-60
2022/10/11 11:51:03;;;;;;;5.83;1.50;;;15.10;1.00;;;;;;5094565;28;20223;-60
2022/10/11 11:53:47;;;;;;;7.43;1.80;;;15.10;1.00;;;;;;5094627;28;20193;-59
2022/10/11 11:56:26;;;;;;;7.27;1.60;;;15.00;1.00;;;;;;5094527;28;20212;-58
2022/10/11 11:59:01;;;;;;;6.47;1.57;;;14.80;1.00;;;;;;5094048;28;20314;-60
2022/10/11 12:01:35;;;;;;;12.50;2.23;;;14.60;1.00;;;;;;5094524;28;20219;-57
2022/10/11 12:04:04;;;;;;;8.83;1.60;;;14.60;1.00;;;;;;5094291;28;20205;-59
2022/10/11 12:06:34;;;;;;;12.10;2.07;;;14.60;1.00;;;;;;5094313;28;20208;-58
2022/10/11 12:09:05;;;;;;;8.37;1.53;;;14.10;1.00;;;;;;5093682;28;20277;-59
2022/10/11 12:11:47;;;;;;;6.53;1.70;;;14.10;1.00;;;;;;5094370;28;20209;-60
2022/10/11 12:14:26;;;;;;;8.90;1.60;;;13.90;1.00;;;;;;5094101;28;20212;-59
2022/10/11 12:17:12;;;;;;;8.20;1.53;;;13.90;1.00;;;;;;5093983;28;20835;-60
2022/10/11 12:19:42;;;;;;;8.33;2.23;;;13.90;99.90;;;;;;5093007;28;20274;-59
2022/10/11 12:22:37;;;;;;;6.97;1.90;;;14.00;1.00;;;;;;5094448;28;20208;-59
2022/10/11 12:25:33;;;;;;;7.80;1.90;;;14.00;1.00;;;;;;5093659;28;20776;-59
2022/10/11 12:28:01;;;;;;;7.97;2.10;;;14.10;1.00;;;;;;5092919;28;20258;-60
2022/10/11 12:30:52;;;;;;;7.90;1.70;;;14.20;1.00;;;;;;5093574;28;20211;-64
2022/10/11 12:33:21;;;;;;;4.70;1.50;;;14.50;99.90;;;;;;5093696;28;20204;-60
2022/10/11 12:36:01;;;;;;;4.77;1.60;;;14.90;1.00;;;;;;5093185;28;20212;-60
2022/10/11 12:38:32;;;;;;;5.60;1.50;;;15.20;1.00;;;;;;5086906;28;20224;-59
2022/10/11 12:41:20;;;;;;;9.60;1.73;;;15.40;1.00;;;;;;5089249;28;20243;-60
2022/10/11 12:44:19;;;;;;;8.20;2.73;;;15.70;1.00;;;;;;5086156;28;20212;-57
2022/10/11 12:47:18;;;;;;;7.00;2.67;;;15.60;1.00;;;;;;5092344;28;20207;-58
2022/10/11 12:49:59;;;;;;;6.07;1.93;;;15.70;99.90;;;;;;5092817;28;20738;-59
2022/10/11 12:52:39;;;;;;;7.60;1.70;;;15.90;99.90;;;;;;5092548;28;20211;-58
2022/10/11 12:55:37;;;;;;;5.73;1.73;;;16.10;99.90;;;;;;5093030;28;20214;-58
2022/10/11 12:58:29;;;;;;;14.30;2.50;;;15.70;99.90;;;;;;5092250;28;20224;-58
2022/10/11 13:01:21;;;;;;;8.60;1.80;;;15.20;1.00;;;;;;5092365;28;20208;-56
2022/10/11 13:03:58;;;;;;;13.37;2.80;;;14.90;1.00;;;;;;5092248;28;20296;-58